Time;durP1;ratioP1;P1;durP2;ratioP2;P2;SDS_P1;SDS_P2;PMS_P1;PMS_P2;Temp;Humidity;BMP_temperature;BMP_pressure;BME280_temperature;BME280_humidity;BME280_pressure;Samples;Min_cycle;Max_cycle;Signal;HPM_P1;HPM_P2
2023/01/19 00:01:25;;;;;;;81.60;56.50;;;;;;;-0.13;100.00;97573.77;109531;1252;58959;-77
2023/01/19 00:03:51;;;;;;;79.00;55.60;;;;;;;-0.09;100.00;97577.95;109523;1253;58855;-78
2023/01/19 00:06:18;;;;;;;72.70;52.30;;;;;;;-0.05;100.00;97577.39;109564;1253;59609;-77
2023/01/19 00:08:47;;;;;;;68.50;50.00;;;;;;;0.02;100.00;97579.55;109522;1253;59380;-78
2023/01/19 00:11:14;;;;;;;66.50;45.60;;;;;;;0.09;100.00;97577.99;109497;1252;62535;-78
2023/01/19 00:13:40;;;;;;;70.40;51.40;;;;;;;0.16;100.00;97581.33;109571;1252;58970;-77
2023/01/19 00:16:07;;;;;;;69.60;50.10;;;;;;;0.21;100.00;97578.11;109527;1253;58952;-78
2023/01/19 00:18:33;;;;;;;64.90;46.40;;;;;;;0.25;100.00;97574.44;109502;1253;66030;-78
2023/01/19 00:21:00;;;;;;;63.60;46.90;;;;;;;0.28;100.00;97577.09;109520;1253;58982;-78
2023/01/19 00:23:26;;;;;;;62.70;47.20;;;;;;;0.29;100.00;97583.16;109536;1251;59344;-78
2023/01/19 00:25:53;;;;;;;66.30;47.00;;;;;;;0.29;100.00;97581.23;109514;1251;59216;-79
2023/01/19 00:28:19;;;;;;;64.60;44.20;;;;;;;0.29;100.00;97579.80;109513;1253;59167;-78
2023/01/19 00:30:46;;;;;;;59.90;44.30;;;;;;;0.31;100.00;97581.47;109526;1253;59376;-77
2023/01/19 00:33:13;;;;;;;62.80;45.90;;;;;;;0.32;100.00;97579.30;109515;1253;59201;-77
2023/01/19 00:35:41;;;;;;;60.00;43.90;;;;;;;0.35;100.00;97579.91;109505;1254;64088;-78
2023/01/19 00:38:09;;;;;;;54.40;41.20;;;;;;;0.36;100.00;97578.76;109527;1251;59029;-78
2023/01/19 00:40:35;;;;;;;59.30;43.20;;;;;;;0.38;100.00;97579.55;109512;1253;59076;-78
2023/01/19 00:43:03;;;;;;;58.50;43.50;;;;;;;0.39;100.00;97583.86;108704;1253;1002127;-78
2023/01/19 00:45:30;;;;;;;57.20;43.70;;;;;;;0.39;100.00;97588.05;109527;1255;61287;-78
2023/01/19 00:47:56;;;;;;;60.50;45.10;;;;;;;0.39;100.00;97583.55;109525;1253;64050;-76
2023/01/19 00:50:25;;;;;;;60.60;44.60;;;;;;;0.38;100.00;97575.23;109467;1253;58946;-77
2023/01/19 00:52:53;;;;;;;61.20;44.40;;;;;;;0.37;100.00;97575.60;109516;1252;58848;-77
2023/01/19 00:55:22;;;;;;;62.50;44.80;;;;;;;0.36;100.00;97570.73;109481;1253;66246;-79
2023/01/19 00:57:49;;;;;;;58.90;41.10;;;;;;;0.36;100.00;97570.02;109567;1253;60093;-78
2023/01/19 01:00:20;;;;;;;59.40;43.80;;;;;;;0.37;100.00;97571.90;109530;1253;59052;-76
2023/01/19 01:02:49;;;;;;;62.20;43.60;;;;;;;0.38;100.00;97577.13;109485;1252;59117;-78
2023/01/19 01:05:17;;;;;;;63.50;46.40;;;;;;;0.38;100.00;97576.23;109559;1255;58988;-79
2023/01/19 01:07:44;;;;;;;60.80;44.80;;;;;;;0.37;100.00;97577.84;109247;1252;66172;-78
2023/01/19 01:10:14;;;;;;;63.80;46.80;;;;;;;0.37;100.00;97581.89;109169;1253;60265;-78
2023/01/19 01:12:41;;;;;;;64.90;48.30;;;;;;;0.37;100.00;97585.55;109249;1253;62834;-78
2023/01/19 01:15:11;;;;;;;67.80;48.30;;;;;;;0.37;100.00;97583.45;109451;1254;58956;-79
2023/01/19 01:17:46;;;;;;;;;;;;;;;0.37;100.00;97585.00;109399;1253;59374;-78
2023/01/19 01:20:15;;;;;;;68.10;46.00;;;;;;;0.36;100.00;97590.98;109522;1255;66041;-77
2023/01/19 01:22:44;;;;;;;63.90;48.10;;;;;;;0.36;100.00;97595.39;109492;1253;60142;-77
2023/01/19 01:25:15;;;;;;;65.20;48.80;;;;;;;0.35;100.00;97588.95;109457;1253;62847;-77
2023/01/19 01:27:41;;;;;;;64.10;47.80;;;;;;;0.35;100.00;97584.45;109494;1252;58956;-77
2023/01/19 01:30:11;;;;;;;62.60;47.10;;;;;;;0.35;100.00;97579.20;109470;1253;59044;-78
2023/01/19 01:32:37;;;;;;;71.30;49.00;;;;;;;0.34;100.00;97579.75;109510;1254;66083;-78
2023/01/19 01:35:05;;;;;;;69.80;49.50;;;;;;;0.34;100.00;97578.35;109546;1252;58996;-78
2023/01/19 01:37:31;;;;;;;65.80;48.70;;;;;;;0.34;100.00;97571.72;109224;1256;63738;-78
2023/01/19 01:39:57;;;;;;;70.30;51.50;;;;;;;0.34;100.00;97568.21;109516;1252;58953;-79
2023/01/19 01:42:27;;;;;;;68.80;50.50;;;;;;;0.35;100.00;97567.14;109512;1253;59029;-78
2023/01/19 01:44:56;;;;;;;66.10;48.80;;;;;;;0.36;100.00;97561.32;109381;1253;64863;-77
2023/01/19 01:47:43;;;;;;;71.00;47.80;;;;;;;0.36;100.00;97552.73;109379;1253;60394;-77
2023/01/19 01:50:19;;;;;;;68.80;48.10;;;;;;;0.36;100.00;97547.30;109522;1253;62875;-77
2023/01/19 01:52:50;;;;;;;65.00;45.80;;;;;;;0.37;100.00;97545.72;109491;1253;59315;-78
2023/01/19 01:55:20;;;;;;;65.60;45.90;;;;;;;0.37;100.00;97551.64;109558;1254;59107;-77
2023/01/19 01:57:52;;;;;;;64.60;44.40;;;;;;;0.38;100.00;97558.79;109258;1254;66010;-77
2023/01/19 02:00:19;;;;;;;65.80;45.70;;;;;;;0.38;100.00;97559.10;109499;1252;60119;-77
2023/01/19 02:02:53;;;;;;;58.20;42.50;;;;;;;0.39;100.00;97559.05;108739;1253;1002270;-78
2023/01/19 02:05:25;;;;;;;58.00;41.10;;;;;;;0.40;100.00;97558.66;109519;1252;58979;-78
2023/01/19 02:13:34;;;;;;;54.80;37.80;;;;;;;0.43;100.00;97563.91;109309;1252;59450;-77
2023/01/19 02:16:05;;;;;;;53.50;39.50;;;;;;;0.44;100.00;97563.02;109573;1254;63127;-78
2023/01/19 02:18:32;;;;;;;56.90;42.30;;;;;;;0.43;100.00;97564.61;109558;1254;58952;-77
2023/01/19 02:21:08;;;;;;;57.10;41.20;;;;;;;0.43;100.00;97566.89;108770;1252;1002151;-78
2023/01/19 02:23:51;;;;;;;57.50;41.70;;;;;;;0.43;100.00;97569.35;109427;1253;66048;-78
2023/01/19 02:26:22;;;;;;;55.50;41.60;;;;;;;0.42;100.00;97572.88;109534;1252;58965;-78
2023/01/19 02:29:01;;;;;;;54.60;40.90;;;;;;;0.42;100.00;97574.80;109496;1252;63034;-78
2023/01/19 02:31:29;;;;;;;55.10;41.90;;;;;;;0.42;100.00;97569.92;109422;1251;59081;-77
2023/01/19 02:33:58;;;;;;;54.30;40.80;;;;;;;0.42;100.00;97572.04;109472;1253;59010;-77
2023/01/19 02:36:29;;;;;;;59.80;43.40;;;;;;;0.41;100.00;97574.48;109463;1253;65894;-78
2023/01/19 02:38:59;;;;;;;57.10;43.60;;;;;;;0.41;100.00;97577.66;109481;1253;59344;-77
2023/01/19 02:41:30;;;;;;;58.60;43.50;;;;;;;0.40;100.00;97577.52;109451;1252;64174;-77
2023/01/19 02:43:57;;;;;;;58.80;42.80;;;;;;;0.39;100.00;97573.89;109396;1253;58999;-78
2023/01/19 02:46:24;;;;;;;57.90;42.50;;;;;;;0.38;100.00;97571.85;109498;1254;59074;-77
2023/01/19 02:48:51;;;;;;;54.50;41.70;;;;;;;0.37;100.00;97571.20;109230;1254;64953;-78
2023/01/19 02:51:23;;;;;;;60.00;43.40;;;;;;;0.36;100.00;97566.17;109470;1255;59027;-78
2023/01/19 02:54:11;;;;;;;55.80;42.30;;;;;;;0.37;100.00;97571.92;109500;1252;64087;-77
2023/01/19 02:56:41;;;;;;;54.80;41.90;;;;;;;0.37;100.00;97576.14;109475;1253;58979;-77
2023/01/19 02:59:22;;;;;;;;;;;;;;;0.36;100.00;97572.67;109514;1252;59060;-76
2023/01/19 03:01:48;;;;;;;;;;;;;;;0.32;100.00;97573.04;109507;1252;66043;-77
2023/01/19 03:04:32;;;;;;;54.00;37.60;;;;;;;0.29;100.00;97572.48;109484;1252;60258;-77
2023/01/19 03:07:09;;;;;;;59.00;41.40;;;;;;;0.27;100.00;97569.95;109507;1253;64759;-77
2023/01/19 03:09:44;;;;;;;59.20;40.50;;;;;;;0.27;100.00;97572.95;109407;1254;59162;-77
2023/01/19 03:12:42;;;;;;;52.80;39.20;;;;;;;0.27;100.00;97572.10;109447;1253;59095;-78
2023/01/19 03:15:27;;;;;;;58.80;40.50;;;;;;;0.25;100.00;97574.05;109421;1251;65754;-78
2023/01/19 03:17:57;;;;;;;58.10;43.00;;;;;;;0.24;100.00;97579.71;109490;1254;59744;-78
2023/01/19 03:20:24;;;;;;;56.10;42.50;;;;;;;0.24;100.00;97579.22;109461;1253;64765;-78
2023/01/19 03:22:57;;;;;;;55.20;40.90;;;;;;;0.21;100.00;97578.45;109491;1251;59038;-78
2023/01/19 03:25:25;;;;;;;55.60;41.20;;;;;;;0.18;100.00;97578.60;109487;1252;59247;-77
2023/01/19 03:27:53;;;;;;;58.80;43.40;;;;;;;0.16;100.00;97575.73;109398;1252;66695;-78
2023/01/19 03:30:31;;;;;;;58.00;43.20;;;;;;;0.15;100.00;97573.35;109479;1252;60862;-77
2023/01/19 03:33:03;;;;;;;59.90;45.30;;;;;;;0.14;100.00;97572.50;109537;1254;65521;-77
2023/01/19 03:35:34;;;;;;;61.20;45.70;;;;;;;0.15;100.00;97570.73;109372;1254;58907;-77
2023/01/19 03:38:02;;;;;;;;;;;;;;;0.16;100.00;97569.64;109603;1252;58962;-77
2023/01/19 03:40:32;;;;;;;61.30;43.70;;;;;;;0.16;100.00;97569.95;109570;1253;66109;-77
2023/01/19 03:43:01;;;;;;;72.80;52.70;;;;;;;0.18;100.00;97577.55;109541;1252;60977;-77
2023/01/19 03:45:30;;;;;;;64.00;48.30;;;;;;;0.20;100.00;97578.88;109498;1254;65123;-76
2023/01/19 03:47:58;;;;;;;64.60;49.30;;;;;;;0.22;100.00;97576.33;109165;1254;59464;-78
2023/01/19 03:50:28;;;;;;;67.50;53.10;;;;;;;0.24;100.00;97579.88;109503;1253;58959;-77
2023/01/19 03:53:07;;;;;;;64.90;47.00;;;;;;;0.28;100.00;97589.83;109318;1253;66043;-78
2023/01/19 03:55:37;;;;;;;68.70;51.60;;;;;;;0.30;100.00;97595.85;109449;1253;61573;-78
2023/01/19 03:58:04;;;;;;;69.40;53.40;;;;;;;0.31;100.00;97594.77;108647;1253;1002374;-78
2023/01/19 04:00:31;;;;;;;71.50;51.70;;;;;;;0.32;100.00;97598.91;109456;1253;59000;-78
2023/01/19 04:02:59;;;;;;;68.30;52.70;;;;;;;0.34;100.00;97600.04;109449;1253;58904;-78
2023/01/19 04:05:25;;;;;;;68.90;52.30;;;;;;;0.35;100.00;97599.61;109427;1253;66983;-77
2023/01/19 04:07:52;;;;;;;72.20;54.70;;;;;;;0.36;100.00;97600.62;109433;1253;59862;-77
2023/01/19 04:10:20;;;;;;;68.60;51.80;;;;;;;0.36;100.00;97603.20;109084;1253;64823;-77
2023/01/19 04:12:47;;;;;;;67.10;51.00;;;;;;;0.37;100.00;97609.65;109418;1253;58940;-77
2023/01/19 04:15:14;;;;;;;67.60;53.60;;;;;;;0.37;100.00;97615.08;109447;1253;59057;-78
2023/01/19 04:17:41;;;;;;;67.80;54.90;;;;;;;0.37;100.00;97618.20;109385;1253;66350;-78
2023/01/19 04:20:08;;;;;;;70.40;53.10;;;;;;;0.38;100.00;97613.48;109435;1253;60794;-78
2023/01/19 04:22:35;;;;;;;71.90;54.20;;;;;;;0.37;100.00;97609.84;109135;1253;65290;-78
2023/01/19 04:25:02;;;;;;;66.70;53.50;;;;;;;0.36;100.00;97617.05;109474;1253;58971;-77
2023/01/19 04:27:28;;;;;;;75.40;57.10;;;;;;;0.35;100.00;97621.48;109389;1254;58917;-77
2023/01/19 04:29:55;;;;;;;79.20;59.20;;;;;;;0.35;100.00;97617.80;109406;1253;65923;-78
2023/01/19 04:32:22;;;;;;;140.20;89.70;;;;;;;0.33;100.00;97611.94;109513;1253;66948;-78
2023/01/19 04:34:49;;;;;;;136.30;96.80;;;;;;;0.32;100.00;97606.93;109435;1254;63705;-78
2023/01/19 04:37:16;;;;;;;71.20;57.40;;;;;;;0.30;100.00;97605.44;109339;1253;58979;-78
2023/01/19 04:39:43;;;;;;;70.40;53.60;;;;;;;0.30;100.00;97615.44;109495;1252;59128;-78
2023/01/19 04:42:09;;;;;;;76.40;56.10;;;;;;;0.29;100.00;97629.95;109407;1252;67225;-77
2023/01/19 04:44:36;;;;;;;79.20;58.30;;;;;;;0.30;100.00;97635.70;109458;1253;60765;-78
2023/01/19 04:47:02;;;;;;;88.40;66.40;;;;;;;0.31;100.00;97642.27;109389;1253;64724;-77
2023/01/19 04:49:29;;;;;;;86.30;65.50;;;;;;;0.32;100.00;97649.56;109430;1252;59269;-78
2023/01/19 04:51:56;;;;;;;75.00;58.70;;;;;;;0.33;100.00;97648.96;109475;1252;59014;-78
2023/01/19 04:54:23;;;;;;;76.30;57.90;;;;;;;0.35;100.00;97653.78;109469;1252;66780;-78
2023/01/19 04:56:49;;;;;;;77.80;59.20;;;;;;;0.35;100.00;97655.69;109474;1252;61167;-78
2023/01/19 04:59:16;;;;;;;73.00;57.00;;;;;;;0.36;100.00;97658.44;109514;1252;64747;-77
2023/01/19 05:01:42;;;;;;;75.70;59.00;;;;;;;0.37;100.00;97663.27;109489;1253;58922;-77
2023/01/19 05:04:09;;;;;;;78.60;57.40;;;;;;;0.37;100.00;97666.95;109356;1252;59412;-77
2023/01/19 05:06:36;;;;;;;81.60;62.40;;;;;;;0.36;100.00;97663.14;109439;1252;67025;-77
2023/01/19 05:09:03;;;;;;;79.40;63.10;;;;;;;0.36;100.00;97656.19;109267;1254;59772;-78
2023/01/19 05:11:29;;;;;;;80.60;61.80;;;;;;;0.35;100.00;97655.50;109446;1252;64160;-78
2023/01/19 05:13:56;;;;;;;78.40;57.70;;;;;;;0.35;100.00;97651.67;109448;1252;59306;-77
2023/01/19 05:16:23;;;;;;;79.10;61.40;;;;;;;0.35;100.00;97647.50;109483;1252;58842;-78
2023/01/19 05:18:49;;;;;;;87.20;66.70;;;;;;;0.35;100.00;97643.81;109453;1252;66896;-78
2023/01/19 05:21:16;;;;;;;83.20;64.30;;;;;;;0.35;100.00;97644.89;109500;1252;60189;-77
2023/01/19 05:23:43;;;;;;;81.60;61.90;;;;;;;0.36;100.00;97645.88;109512;1252;62413;-77
2023/01/19 05:26:10;;;;;;;82.70;62.00;;;;;;;0.36;100.00;97642.86;109469;1252;58951;-78
2023/01/19 05:28:36;;;;;;;81.50;62.30;;;;;;;0.37;100.00;97644.09;109520;1252;59807;-78
2023/01/19 05:31:03;;;;;;;83.00;65.80;;;;;;;0.37;100.00;97639.02;109478;1252;65786;-78
2023/01/19 05:33:30;;;;;;;91.10;68.90;;;;;;;0.37;100.00;97626.41;109440;1253;60118;-77
2023/01/19 05:35:57;;;;;;;95.50;72.40;;;;;;;0.37;100.00;97617.68;109461;1252;72585;-77
2023/01/19 05:38:23;;;;;;;122.90;84.30;;;;;;;0.37;100.00;97621.36;108725;1252;1002224;-78
2023/01/19 05:40:56;;;;;;;130.20;86.30;;;;;;;0.35;100.00;97618.81;109453;1252;59020;-78
2023/01/19 05:43:24;;;;;;;128.20;89.60;;;;;;;0.35;100.00;97623.90;109506;1252;66978;-78
2023/01/19 05:45:51;;;;;;;141.90;96.60;;;;;;;0.34;100.00;97624.84;109478;1252;59709;-78
2023/01/19 05:48:17;;;;;;;132.70;91.60;;;;;;;0.33;100.00;97629.61;109449;1251;64731;-77
2023/01/19 05:50:44;;;;;;;120.20;85.40;;;;;;;0.31;100.00;97629.17;109427;1252;58983;-77
2023/01/19 05:53:10;;;;;;;119.00;82.90;;;;;;;0.30;100.00;97628.55;109477;1252;58988;-77
2023/01/19 05:55:37;;;;;;;102.30;77.30;;;;;;;0.29;100.00;97627.36;109513;1252;67191;-76
2023/01/19 05:58:04;;;;;;;106.60;76.50;;;;;;;0.27;100.00;97626.02;109498;1252;59771;-78
2023/01/19 06:00:31;;;;;;;100.00;71.60;;;;;;;0.26;100.00;97628.17;109502;1252;64718;-78
2023/01/19 06:02:59;;;;;;;100.80;73.90;;;;;;;0.24;100.00;97634.40;109492;1253;59078;-77
2023/01/19 06:05:26;;;;;;;94.00;71.50;;;;;;;0.22;100.00;97636.23;109485;1252;58882;-77
2023/01/19 06:07:55;;;;;;;91.30;70.30;;;;;;;0.21;100.00;97628.75;109477;1252;65939;-77
2023/01/19 06:10:22;;;;;;;95.80;73.90;;;;;;;0.22;100.00;97627.31;109545;1252;67972;-78
2023/01/19 06:12:49;;;;;;;94.10;71.10;;;;;;;0.23;100.00;97629.55;108757;1252;1002427;-77
2023/01/19 06:15:15;;;;;;;95.20;70.90;;;;;;;0.24;100.00;97633.35;109529;1252;59002;-77
2023/01/19 06:17:42;;;;;;;98.40;72.00;;;;;;;0.24;100.00;97640.14;109590;1251;58918;-77
2023/01/19 06:20:09;;;;;;;96.00;73.70;;;;;;;0.26;100.00;97647.92;109583;1252;64950;-78
2023/01/19 06:22:36;;;;;;;99.50;74.60;;;;;;;0.27;100.00;97655.73;109299;1253;60787;-79
2023/01/19 06:25:02;;;;;;;101.30;76.90;;;;;;;0.28;100.00;97666.34;109286;1252;65039;-77
2023/01/19 06:27:29;;;;;;;98.80;72.80;;;;;;;0.29;100.00;97675.02;109462;1252;58995;-77
2023/01/19 06:29:56;;;;;;;92.80;70.60;;;;;;;0.30;100.00;97676.39;109458;1252;59018;-77
2023/01/19 06:32:22;;;;;;;92.40;74.80;;;;;;;0.30;100.00;97676.04;109571;1252;66299;-77
2023/01/19 06:34:49;;;;;;;103.30;77.10;;;;;;;0.31;100.00;97680.00;109512;1252;60764;-78
2023/01/19 06:37:15;;;;;;;99.60;76.90;;;;;;;0.32;100.00;97691.66;109490;1251;64866;-77
2023/01/19 06:39:44;;;;;;;94.00;72.30;;;;;;;0.33;100.00;97704.19;109496;1252;58949;-77
2023/01/19 06:42:10;;;;;;;91.00;72.20;;;;;;;0.33;100.00;97712.71;109478;1251;59091;-78
2023/01/19 06:44:37;;;;;;;96.10;71.70;;;;;;;0.35;100.00;97715.11;109503;1251;65755;-77
2023/01/19 06:47:03;;;;;;;86.60;65.30;;;;;;;0.36;100.00;97718.54;109467;1252;60109;-77
2023/01/19 06:49:30;;;;;;;81.00;59.80;;;;;;;0.37;100.00;97727.74;109454;1252;64925;-77
2023/01/19 06:51:57;;;;;;;82.40;60.80;;;;;;;0.39;100.00;97737.96;109256;1252;59476;-78
2023/01/19 06:54:23;;;;;;;79.30;61.20;;;;;;;0.41;100.00;97745.02;109180;1252;58954;-78
2023/01/19 06:56:50;;;;;;;76.80;59.20;;;;;;;0.44;100.00;97749.44;109514;1252;66772;-78
2023/01/19 06:59:17;;;;;;;72.50;56.70;;;;;;;0.46;100.00;97754.40;109371;1253;60166;-78
2023/01/19 07:01:44;;;;;;;74.20;59.00;;;;;;;0.48;100.00;97759.90;109467;1251;62674;-78
2023/01/19 07:04:13;;;;;;;69.10;54.30;;;;;;;0.50;100.00;97768.21;109473;1252;58957;-78
2023/01/19 07:06:40;;;;;;;70.20;55.50;;;;;;;0.53;100.00;97775.75;109524;1251;59081;-79
2023/01/19 07:09:09;;;;;;;71.60;56.40;;;;;;;0.57;100.00;97774.90;109488;1252;66754;-79
2023/01/19 07:11:35;;;;;;;70.70;54.80;;;;;;;0.58;100.00;97777.46;109525;1252;60867;-77
2023/01/19 07:14:02;;;;;;;73.20;57.80;;;;;;;0.60;100.00;97775.78;109453;1251;64761;-78
2023/01/19 07:16:29;;;;;;;80.80;60.40;;;;;;;0.62;100.00;97777.11;109457;1251;58945;-77
2023/01/19 07:18:56;;;;;;;81.30;61.40;;;;;;;0.62;100.00;97778.83;109112;1252;1002880;-77
2023/01/19 07:21:23;;;;;;;79.20;63.30;;;;;;;0.64;100.00;97778.95;109473;1252;66770;-77
2023/01/19 07:23:51;;;;;;;78.90;62.70;;;;;;;0.65;100.00;97777.46;109476;1251;60117;-78
2023/01/19 07:26:20;;;;;;;80.00;59.80;;;;;;;0.67;100.00;97776.52;108678;1252;1003127;-78
2023/01/19 07:28:47;;;;;;;79.50;64.80;;;;;;;0.71;100.00;97774.75;109477;1252;59163;-78
2023/01/19 07:31:14;;;;;;;80.00;63.40;;;;;;;0.74;100.00;97769.02;109519;1251;59022;-78
2023/01/19 07:33:40;;;;;;;76.40;61.20;;;;;;;0.76;100.00;97765.42;109484;1251;66337;-78
2023/01/19 07:36:08;;;;;;;80.60;65.10;;;;;;;0.79;100.00;97762.69;109479;1252;59844;-78
2023/01/19 07:38:34;;;;;;;74.40;59.30;;;;;;;0.80;100.00;97761.88;109498;1252;65126;-78
2023/01/19 07:41:03;;;;;;;77.10;63.10;;;;;;;0.82;100.00;97760.77;109482;1252;59261;-78
2023/01/19 07:43:30;;;;;;;89.30;70.20;;;;;;;0.83;100.00;97755.46;109466;1252;58959;-78
2023/01/19 07:45:59;;;;;;;88.30;72.80;;;;;;;0.86;100.00;97754.45;109324;1252;66961;-78
2023/01/19 07:48:26;;;;;;;85.80;68.30;;;;;;;0.91;100.00;97745.84;109469;1251;60711;-78
2023/01/19 07:50:58;;;;;;;86.50;67.00;;;;;;;0.96;100.00;97751.75;109500;1252;63797;-79
2023/01/19 07:53:25;;;;;;;90.00;65.40;;;;;;;0.98;100.00;97767.91;109353;1251;59007;-78
2023/01/19 07:55:55;;;;;;;78.80;63.40;;;;;;;1.00;100.00;97780.73;109528;1252;59277;-78
2023/01/19 07:58:23;;;;;;;87.90;67.40;;;;;;;1.02;100.00;97789.36;109526;1251;67007;-78
2023/01/19 08:00:50;;;;;;;96.20;82.30;;;;;;;1.03;100.00;97790.91;109340;1252;59948;-78
2023/01/19 08:03:17;;;;;;;89.70;77.20;;;;;;;1.04;100.00;97794.34;109299;1251;226614;-78
2023/01/19 08:05:50;;;;;;;99.80;78.40;;;;;;;1.05;100.00;97799.75;109547;1251;58942;-78
2023/01/19 08:08:17;;;;;;;89.60;77.40;;;;;;;1.07;100.00;97801.21;109329;1252;59220;-78
2023/01/19 08:10:45;;;;;;;83.00;70.70;;;;;;;1.10;100.00;97796.67;109483;1252;67102;-78
2023/01/19 08:13:11;;;;;;;81.60;66.00;;;;;;;1.15;100.00;97802.42;109527;1252;60863;-78
2023/01/19 08:15:38;;;;;;;92.70;77.00;;;;;;;1.17;100.00;97809.11;109529;1251;63893;-77
2023/01/19 08:18:05;;;;;;;83.20;70.60;;;;;;;1.19;100.00;97814.45;109444;1251;58921;-78
2023/01/19 08:20:32;;;;;;;87.00;69.50;;;;;;;1.20;100.00;97813.37;109533;1252;59275;-78
2023/01/19 08:22:59;;;;;;;86.40;72.30;;;;;;;1.19;100.00;97816.93;109287;1253;65692;-78
2023/01/19 08:25:31;;;;;;;88.10;70.80;;;;;;;1.19;100.00;97818.34;109504;1251;60858;-77
2023/01/19 08:27:58;;;;;;;88.80;70.10;;;;;;;1.17;100.00;97820.48;109441;1252;64824;-77
2023/01/19 08:30:25;;;;;;;95.40;78.00;;;;;;;1.15;100.00;97818.69;109479;1252;58994;-77
2023/01/19 08:32:53;;;;;;;101.40;79.50;;;;;;;1.09;100.00;97818.09;109401;1252;59489;-78
2023/01/19 08:35:21;;;;;;;108.50;86.80;;;;;;;1.00;100.00;97814.98;109485;1252;64619;-78
2023/01/19 08:37:48;;;;;;;104.40;84.60;;;;;;;0.95;100.00;97813.15;109504;1252;60818;-78
2023/01/19 08:40:15;;;;;;;103.00;83.00;;;;;;;0.92;100.00;97815.23;109471;1252;64893;-79
2023/01/19 08:42:41;;;;;;;99.80;78.80;;;;;;;0.89;100.00;97808.70;109473;1251;58997;-78
2023/01/19 08:45:08;;;;;;;101.70;77.00;;;;;;;0.90;100.00;97790.32;109461;1252;58853;-78
2023/01/19 08:47:35;;;;;;;98.20;78.90;;;;;;;0.91;100.00;97784.80;109175;1252;67363;-78
2023/01/19 08:50:01;;;;;;;93.90;78.30;;;;;;;0.93;100.00;97788.95;109495;1251;60744;-77
2023/01/19 08:52:28;;;;;;;100.50;82.70;;;;;;;0.92;100.00;97789.33;109464;1252;64868;-77
2023/01/19 08:54:55;;;;;;;103.20;86.00;;;;;;;0.92;100.00;97784.60;109380;1252;59019;-78
2023/01/19 08:57:21;;;;;;;105.70;83.30;;;;;;;0.94;100.00;97771.95;109522;1251;59019;-78
2023/01/19 08:59:48;;;;;;;105.60;83.20;;;;;;;0.95;100.00;97778.02;109205;1251;66302;-77
2023/01/19 09:02:15;;;;;;;106.10;86.40;;;;;;;0.97;100.00;97790.68;109498;1252;60710;-77
2023/01/19 09:04:41;;;;;;;102.90;81.40;;;;;;;0.97;100.00;97804.32;109499;1252;64150;-78
2023/01/19 09:07:08;;;;;;;101.20;79.20;;;;;;;0.97;100.00;97811.11;109540;1252;58956;-77
2023/01/19 09:09:36;;;;;;;101.10;80.10;;;;;;;0.98;100.00;97821.60;109547;1252;59026;-77
2023/01/19 09:12:03;;;;;;;107.20;79.70;;;;;;;0.98;100.00;97830.17;109464;1252;67393;-78
2023/01/19 09:14:30;;;;;;;105.70;76.60;;;;;;;0.99;100.00;97832.40;109302;1254;59864;-78
2023/01/19 09:16:57;;;;;;;99.70;73.20;;;;;;;1.02;100.00;97835.20;109458;1252;63700;-78
2023/01/19 09:19:24;;;;;;;100.10;74.10;;;;;;;1.04;100.00;97837.39;109445;1251;58957;-78
2023/01/19 09:21:53;;;;;;;93.90;72.80;;;;;;;1.05;100.00;97838.05;109498;1252;58896;-77
2023/01/19 09:24:20;;;;;;;94.90;71.20;;;;;;;1.05;100.00;97842.59;109398;1252;66660;-78
2023/01/19 09:26:46;;;;;;;92.70;71.00;;;;;;;1.05;100.00;97844.49;109401;1251;59063;-77
2023/01/19 09:29:13;;;;;;;93.90;67.20;;;;;;;1.06;100.00;97835.72;109503;1252;63695;-78
2023/01/19 09:31:40;;;;;;;97.40;68.60;;;;;;;1.03;100.00;97823.08;109476;1252;59071;-78
2023/01/19 09:34:06;;;;;;;95.40;70.70;;;;;;;1.03;100.00;97817.49;109479;1252;59063;-78
2023/01/19 09:36:35;;;;;;;104.60;75.50;;;;;;;1.07;100.00;97806.81;109508;1252;65592;-79
2023/01/19 09:39:03;;;;;;;99.40;75.70;;;;;;;1.14;100.00;97804.20;109202;1252;59702;-78
2023/01/19 09:41:33;;;;;;;102.20;74.20;;;;;;;1.22;100.00;97810.84;109462;1252;65102;-78
2023/01/19 09:44:00;;;;;;;98.10;72.40;;;;;;;1.26;100.00;97824.96;109378;1252;59018;-78
2023/01/19 09:46:38;;;;;;;95.30;72.00;;;;;;;1.25;100.00;97833.96;109494;1252;59262;-78
2023/01/19 09:49:17;;;;;;;98.40;74.20;;;;;;;1.22;100.00;97840.56;109574;1251;66775;-79
2023/01/19 09:51:46;;;;;;;94.10;68.20;;;;;;;1.21;100.00;97835.17;109577;1252;59740;-78
2023/01/19 09:54:23;;;;;;;90.90;64.80;;;;;;;1.21;100.00;97825.05;109480;1251;64791;-78
2023/01/19 09:56:52;;;;;;;95.50;69.20;;;;;;;1.21;100.00;97819.08;109505;1252;58923;-78
2023/01/19 09:59:19;;;;;;;94.60;71.20;;;;;;;1.22;100.00;97816.27;109308;1251;59195;-78
2023/01/19 10:02:00;;;;;;;104.70;74.30;;;;;;;1.21;100.00;97814.70;108718;1252;1003052;-78
2023/01/19 10:04:39;;;;;;;94.70;70.40;;;;;;;1.20;100.00;97813.19;109517;1252;61369;-78
2023/01/19 10:07:19;;;;;;;102.00;76.00;;;;;;;1.18;100.00;97808.76;109462;1252;65237;-78
2023/01/19 10:10:04;;;;;;;;;;;;;;;1.17;100.00;97801.27;109453;1251;59026;-78
2023/01/19 10:12:52;;;;;;;105.40;73.70;;;;;;;1.17;100.00;97790.41;109511;1251;59020;-78
2023/01/19 10:15:30;;;;;;;107.70;79.20;;;;;;;1.17;100.00;97790.77;109500;1251;66086;-77
2023/01/19 10:18:13;;;;;;;109.70;80.50;;;;;;;1.16;100.00;97795.70;109206;1252;59609;-77
2023/01/19 10:21:00;;;;;;;104.30;77.50;;;;;;;1.15;100.00;97797.50;109471;1252;64089;-76
2023/01/19 10:23:35;;;;;;;112.40;82.70;;;;;;;1.12;100.00;97792.91;109502;1252;59010;-77
2023/01/19 10:26:32;;;;;;;118.10;86.60;;;;;;;1.10;100.00;97792.84;109549;1252;59079;-77
2023/01/19 10:29:06;;;;;;;115.60;85.20;;;;;;;1.08;100.00;97791.73;108968;1258;64560;-77
2023/01/19 10:31:36;;;;;;;120.60;83.70;;;;;;;1.08;100.00;97786.64;108994;1258;61226;-76
2023/01/19 10:34:03;;;;;;;112.50;80.10;;;;;;;1.08;100.00;97783.82;108882;1258;63797;-76
2023/01/19 10:36:38;;;;;;;107.90;82.50;;;;;;;1.07;100.00;97787.36;108983;1258;59016;-77
2023/01/19 10:39:06;;;;;;;102.50;74.20;;;;;;;1.06;100.00;97789.20;108847;1257;59027;-77
2023/01/19 10:41:53;;;;;;;108.30;78.80;;;;;;;1.04;100.00;97784.58;109012;1257;66183;-77
2023/01/19 10:44:27;;;;;;;106.00;78.70;;;;;;;1.03;100.00;97783.58;109006;1258;59769;-78
2023/01/19 10:46:57;;;;;;;102.20;75.00;;;;;;;1.04;100.00;97781.60;108974;1258;64751;-77
2023/01/19 10:49:34;;;;;;;106.80;77.50;;;;;;;1.02;100.00;97783.94;108976;1257;59120;-78
2023/01/19 10:52:04;;;;;;;102.80;73.50;;;;;;;1.03;100.00;97783.23;109047;1258;59420;-76
2023/01/19 10:54:33;;;;;;;105.30;73.10;;;;;;;1.03;100.00;97782.52;108984;1257;66651;-77
2023/01/19 10:57:05;;;;;;;102.70;70.80;;;;;;;1.05;100.00;97781.03;108994;1258;60835;-77
2023/01/19 10:59:43;;;;;;;98.40;72.70;;;;;;;1.06;100.00;97778.36;108981;1258;64082;-78
2023/01/19 11:02:16;;;;;;;98.30;70.20;;;;;;;1.08;100.00;97780.50;108964;1257;59022;-76
2023/01/19 11:04:44;;;;;;;93.60;65.00;;;;;;;1.09;100.00;97781.33;108977;1257;59124;-78
2023/01/19 11:07:32;;;;;;;97.80;64.70;;;;;;;1.07;100.00;97779.34;109391;1253;66695;-77
2023/01/19 11:10:14;;;;;;;92.70;66.40;;;;;;;1.06;100.00;97775.22;109478;1253;59365;-78
2023/01/19 11:13:06;;;;;;;92.20;62.90;;;;;;;1.06;100.00;97770.27;109501;1253;63882;-77
2023/01/19 11:15:39;;;;;;;91.00;63.80;;;;;;;1.06;100.00;97768.57;109465;1253;58965;-77
2023/01/19 11:18:06;;;;;;;90.80;60.10;;;;;;;1.05;100.00;97769.65;109443;1253;59051;-77
2023/01/19 11:20:48;;;;;;;84.30;59.30;;;;;;;1.04;100.00;97770.24;109440;1253;65827;-77
2023/01/19 11:23:24;;;;;;;89.90;62.50;;;;;;;1.04;100.00;97768.46;109503;1253;59730;-77
2023/01/19 11:25:53;;;;;;;87.00;62.80;;;;;;;1.04;100.00;97766.72;109392;1253;62498;-77